Airfield :
LOGIN :

Register | Disclaimer

   EN    FR    IT 

 










Legend :    VFR   Marginal VFR   IFR   Intensive IFR   Very Intensive IFR
Visi :
Ceiling :
>= 8 km
>= 3000ft
5 to 8 km
1000 to 3000 ft
1500m to 5 km
500 to 1000 ft
800 to 1500m
200 to 500 ft
< 800m
< 200 ft
Symbols :   Thunderstorms  Fog  Heavy snow  Heavy precipitations  Wind > 20 kt
SIGMETs :     Misc.  Thunderstorms  Icing  Turbulence  Mountain Waves  Volcanic Ashes







- Airport Elevation : 2697 ft
- IATA code : BLJ


DABT - Batna

CURRENT METAR :
  • 251800Z 14006KT 9999 SCT026 23/13 Q1023

EXPIRED METARs :
  • 251700Z 28012KT 9999 SCT026 26/13 Q1023
  • 251600Z 02011KT 9999 FEW026 27/14 Q1022

TAF TAF DABT
Valid from the 25 at 18:00 until the 26 at 18:00 UTC


251700Z 2518/2618 34008KT 9999 SCT026
TEMPO 2518/2606 FEW026TCU
PROB40
TEMPO 2518/2603 35015G25KT 4000 TSRA SCT026CB BKN030
BECMG 2520/2522 04012KT
No reported NOTAMs for that airfield.
1 SIGMET reported for the Alger FIR (DAAA) :
 
Embedded thunderstorms
DAAA SIGMET 7 VALID 251840/252240 DAMM
DAAA ALGER FIR EMBD TS OBS WI N3238 E00417 - N3142 E00911 - N3023 E00931 - N2908 E00715 - N2623 E00741 - N2506 E00201 - N3238 E00417 TOP FL380 MOV N/NE INTSF=



MET'MAP, your aeronautical weather chart ! - Copyright ORBIFLY December 2007 - Disclaimer

ORBIFLY MET'MAP TEAM :

Programming & Development : Alexandra Zaïnal
Concept & Development : Baudouin d'Aumeries
Co-Development & Prog : Marc-Olivier Méhu
Technical & hardware support : Manuel Goepfert

Contact : metmap@orbifly.com




SOURCES & CREDITS :

   NOAA